首页
METAR-TAF:

METAR-TAF

机场 :

Air Force Base Hoedspruit - Eastgate Airport

胡德斯普雷特, 南非共和國

纬度: 24-21-17S, 经度: 31-03-01E, 海拔: 531米

当前天气观测

该预报发布于42分钟前的10:00 UTC
风速5节,风向北转西北
温度 22°C
湿度 69%
气压 1020 hPa

METAR: FAHS 201000Z AUTO 34005KT //// // ////// 22/16 Q1020

时间: 12:42 (10:42 UTC)

预报

该预报发布于1小时和42分钟前的09:00 UTC
预报有效从20日的 10点(UTC)到 20日的 18点(UTC)
风速9节,风向北转西北
能见度10公里或以上
散云层高于3500英尺
成为
从 20日的 14点(UTC)到 20日的 16点(UTC)
风速3节,风向多变
能见度10公里或以上
1500米以下无云,无积雨云

TAF: FAHS 200900Z 2010/2018 34009KT 9999 SCT035 TX26/2012Z TN19/2018Z BECMG 2014/2016 VRB03KT CAVOK

超过4000个机场的气象观测和天气预报(METAR&TAF报告)。

可查询的气象台以黄色和红色小点在地图上表示。

将鼠标移到小点上方,可查看气象台名称。

然后点击查看天气观测和预报。

如需切换地图:点击带黑十字的绿色按钮放大地图;点击带横线的绿色按钮缩小地图;或者点击绿色箭头查看邻近地区的地图。


METAR-TAF: